createdAt,value
2022-09-26T00:01:44.036Z,9.50
2022-09-26T00:04:22.998Z,10.30
2022-09-26T00:06:53.800Z,9.73
2022-09-26T00:09:24.195Z,9.93
2022-09-26T00:11:53.277Z,9.77
2022-09-26T00:14:25.283Z,9.43
2022-09-26T00:16:54.039Z,11.07
2022-09-26T00:19:24.565Z,11.13
2022-09-26T00:21:52.989Z,9.60
2022-09-26T00:24:21.314Z,13.83
2022-09-26T00:26:49.612Z,9.00
2022-09-26T00:29:17.861Z,9.97
2022-09-26T00:31:49.055Z,10.70
2022-09-26T00:34:20.715Z,9.77
2022-09-26T00:36:51.035Z,10.43
2022-09-26T00:39:19.368Z,10.87
2022-09-26T00:41:47.837Z,10.27
2022-09-26T00:44:41.464Z,10.13
2022-09-26T00:47:43.103Z,10.03
2022-09-26T00:50:19.775Z,9.03
2022-09-26T00:52:55.235Z,10.23
2022-09-26T00:55:29.123Z,9.47
2022-09-26T00:58:04.446Z,9.60
2022-09-26T01:00:33.742Z,10.33
2022-09-26T01:03:02.708Z,9.40
2022-09-26T01:05:32.460Z,9.20
2022-09-26T01:08:03.482Z,9.73
2022-09-26T01:10:32.039Z,9.53
2022-09-26T01:13:04.097Z,9.30
2022-09-26T01:15:32.369Z,9.27
2022-09-26T01:18:00.633Z,10.17
2022-09-26T01:20:38.994Z,9.30
2022-09-26T01:23:54.244Z,9.13
2022-09-26T01:27:19.153Z,9.63
2022-09-26T01:30:08.088Z,10.47
2022-09-26T01:33:09.785Z,10.20
2022-09-26T01:36:06.636Z,9.50
2022-09-26T01:38:48.487Z,9.33
2022-09-26T01:41:44.115Z,9.83
2022-09-26T01:44:33.319Z,8.97
2022-09-26T01:47:14.186Z,8.93
2022-09-26T01:49:54.296Z,10.40
2022-09-26T01:52:32.096Z,9.67
2022-09-26T01:55:10.467Z,9.53
2022-09-26T01:57:43.931Z,9.60
2022-09-26T02:00:13.613Z,8.07
2022-09-26T02:02:47.090Z,9.03
2022-09-26T02:05:22.896Z,9.40
2022-09-26T02:07:58.306Z,9.20
2022-09-26T02:10:33.808Z,10.00
2022-09-26T02:13:09.291Z,9.20
2022-09-26T02:15:40.479Z,9.20
2022-09-26T02:18:16.757Z,8.17
2022-09-26T02:20:53.291Z,9.30
2022-09-26T02:23:21.801Z,9.43
2022-09-26T02:25:50.140Z,9.80
2022-09-26T02:28:18.445Z,9.17
2022-09-26T02:30:49.256Z,8.10
2022-09-26T02:33:19.435Z,8.93
2022-09-26T02:35:57.426Z,9.87
2022-09-26T02:38:29.249Z,9.57
2022-09-26T02:41:03.056Z,8.77
2022-09-26T02:44:07.275Z,8.70
2022-09-26T02:47:06.617Z,8.70
2022-09-26T02:49:54.431Z,8.83
2022-09-26T02:52:37.650Z,8.50
2022-09-26T02:55:16.797Z,8.90
2022-09-26T02:57:54.357Z,8.63
2022-09-26T03:00:26.194Z,9.10
2022-09-26T03:03:03.176Z,8.47
2022-09-26T03:05:34.236Z,9.77
2022-09-26T03:08:07.919Z,8.60
2022-09-26T03:10:38.367Z,8.33
2022-09-26T03:13:11.455Z,8.53
2022-09-26T03:15:45.128Z,10.10
2022-09-26T03:18:18.457Z,9.17
2022-09-26T03:20:48.291Z,10.50
2022-09-26T03:23:17.266Z,9.00
2022-09-26T03:25:46.298Z,9.73
2022-09-26T03:28:14.733Z,10.30
2022-09-26T03:30:43.005Z,9.63
2022-09-26T03:33:11.215Z,9.60
2022-09-26T03:35:39.464Z,8.90
2022-09-26T03:38:13.598Z,9.33
2022-09-26T03:40:43.150Z,10.33
2022-09-26T03:43:11.862Z,11.83
2022-09-26T03:45:40.299Z,15.73
2022-09-26T03:48:08.538Z,14.30
2022-09-26T03:50:36.792Z,13.63
2022-09-26T03:53:06.625Z,13.53
2022-09-26T03:55:36.454Z,12.53
2022-09-26T03:58:05.438Z,10.90
2022-09-26T04:00:33.897Z,10.40
2022-09-26T04:03:03.241Z,9.70
2022-09-26T04:05:31.530Z,10.60
2022-09-26T04:08:03.047Z,11.73
2022-09-26T04:10:31.804Z,9.87
2022-09-26T04:13:01.387Z,9.50
2022-09-26T04:15:30.063Z,10.20
2022-09-26T04:17:58.304Z,9.93
2022-09-26T04:20:26.626Z,10.27
2022-09-26T04:22:55.143Z,10.43
2022-09-26T04:25:23.721Z,10.20
2022-09-26T04:27:51.980Z,10.23
2022-09-26T04:30:21.660Z,10.20
2022-09-26T04:32:49.879Z,9.37
2022-09-26T04:35:18.155Z,9.73
2022-09-26T04:37:47.387Z,9.70
2022-09-26T04:40:15.753Z,9.73
2022-09-26T04:42:44.006Z,9.57
2022-09-26T04:45:12.696Z,9.33
2022-09-26T04:47:42.302Z,10.20
2022-09-26T04:50:10.751Z,10.60
2022-09-26T04:52:38.991Z,10.57
2022-09-26T04:55:08.179Z,10.43
2022-09-26T04:57:38.069Z,9.47
2022-09-26T05:00:13.057Z,11.50
2022-09-26T05:02:43.715Z,10.97
2022-09-26T05:05:12.648Z,9.63
2022-09-26T05:07:41.823Z,10.80
2022-09-26T05:10:11.329Z,11.13
2022-09-26T05:12:40.278Z,10.90
2022-09-26T05:15:10.655Z,9.87
2022-09-26T05:17:39.884Z,9.53
2022-09-26T05:20:11.045Z,10.43
2022-09-26T05:22:39.246Z,11.00
2022-09-26T05:25:26.115Z,10.83
2022-09-26T05:27:54.501Z,11.00
2022-09-26T05:30:27.082Z,10.80
2022-09-26T05:32:55.409Z,11.43
2022-09-26T05:35:25.056Z,11.83
2022-09-26T05:38:00.345Z,11.43
2022-09-26T05:40:46.200Z,11.23
2022-09-26T05:43:14.424Z,12.17
2022-09-26T05:45:43.140Z,12.60
2022-09-26T05:48:11.429Z,13.80
2022-09-26T05:50:43.612Z,11.10
2022-09-26T05:53:12.108Z,11.20
2022-09-26T05:55:40.531Z,10.33
2022-09-26T05:58:09.933Z,10.57
2022-09-26T06:00:38.709Z,10.53
2022-09-26T06:03:07.007Z,12.10
2022-09-26T06:05:36.644Z,15.50
2022-09-26T06:08:07.230Z,19.47
2022-09-26T06:10:35.501Z,14.47
2022-09-26T06:13:04.724Z,12.33
2022-09-26T06:15:33.027Z,11.07
2022-09-26T06:18:04.436Z,10.80
2022-09-26T06:20:33.645Z,9.77
2022-09-26T06:23:04.265Z,10.07
2022-09-26T06:25:33.916Z,11.13
2022-09-26T06:28:02.503Z,11.97
2022-09-26T06:30:30.938Z,11.47
2022-09-26T06:32:59.179Z,12.67
2022-09-26T06:35:27.688Z,13.13
2022-09-26T06:37:57.038Z,13.67
2022-09-26T06:40:25.273Z,12.77
2022-09-26T06:42:55.887Z,14.70
2022-09-26T06:45:24.182Z,43.40
2022-09-26T06:47:52.439Z,33.27
2022-09-26T06:50:20.791Z,21.33
2022-09-26T06:52:49.031Z,13.73
2022-09-26T06:55:17.392Z,14.70
2022-09-26T06:57:45.999Z,13.17
2022-09-26T07:00:17.241Z,11.73
2022-09-26T07:02:53.186Z,11.17
2022-09-26T07:05:22.299Z,12.43
2022-09-26T07:07:50.673Z,11.33
2022-09-26T07:10:20.444Z,11.23
2022-09-26T07:12:49.680Z,11.10
2022-09-26T07:15:21.403Z,10.77
2022-09-26T07:17:49.761Z,9.73
2022-09-26T07:20:20.687Z,9.87
2022-09-26T07:22:48.931Z,9.73
2022-09-26T07:25:18.122Z,9.80
2022-09-26T07:27:52.003Z,8.90
2022-09-26T07:30:21.775Z,8.30
2022-09-26T07:32:50.083Z,7.43
2022-09-26T07:35:18.337Z,7.43
2022-09-26T07:37:46.703Z,6.00
2022-09-26T07:40:15.035Z,6.57
2022-09-26T07:42:47.748Z,5.00
2022-09-26T07:45:42.169Z,10.30
2022-09-26T07:48:27.815Z,7.73
2022-09-26T07:50:59.569Z,5.83
2022-09-26T07:53:29.137Z,6.20
2022-09-26T07:56:07.210Z,5.90
2022-09-26T07:58:36.152Z,5.30
2022-09-26T08:01:06.846Z,4.77
2022-09-26T08:03:35.311Z,6.43
2022-09-26T08:06:04.067Z,5.13
2022-09-26T08:08:32.692Z,5.70
2022-09-26T08:11:03.935Z,5.60
2022-09-26T08:13:33.951Z,5.50
2022-09-26T08:16:07.607Z,5.37
2022-09-26T08:18:35.923Z,7.90
2022-09-26T08:21:05.728Z,6.93
2022-09-26T08:23:34.147Z,5.27
2022-09-26T08:26:06.856Z,4.93
2022-09-26T08:28:35.719Z,5.03
2022-09-26T08:31:06.240Z,5.00
2022-09-26T08:33:37.181Z,7.53
2022-09-26T08:36:07.597Z,5.03
2022-09-26T08:38:36.501Z,3.90
2022-09-26T08:41:20.241Z,6.03
2022-09-26T08:44:03.591Z,3.63
2022-09-26T08:46:48.608Z,5.10
2022-09-26T08:49:41.842Z,4.93
2022-09-26T08:52:27.057Z,4.23
2022-09-26T08:54:57.998Z,4.80
2022-09-26T08:57:41.479Z,3.90
2022-09-26T09:00:20.234Z,4.10
2022-09-26T09:03:05.699Z,5.07
2022-09-26T09:05:39.155Z,6.97
2022-09-26T09:08:15.225Z,5.87
2022-09-26T09:10:48.664Z,5.33
2022-09-26T09:13:37.563Z,6.23
2022-09-26T09:16:24.336Z,4.63
2022-09-26T09:19:04.693Z,7.33
2022-09-26T09:21:46.635Z,5.73
2022-09-26T09:24:20.709Z,4.47
2022-09-26T09:30:16.513Z,3.73
2022-09-26T09:32:52.432Z,4.10
2022-09-26T09:35:40.976Z,4.97
2022-09-26T09:38:16.929Z,4.07
2022-09-26T09:40:54.195Z,3.77
2022-09-26T09:43:29.892Z,3.27
2022-09-26T09:46:05.611Z,3.60
2022-09-26T09:48:34.452Z,3.03
2022-09-26T09:51:20.446Z,3.53
2022-09-26T09:54:21.538Z,3.53
2022-09-26T09:57:12.572Z,3.10
2022-09-26T10:00:02.240Z,2.80
2022-09-26T10:02:40.402Z,3.77
2022-09-26T10:05:25.173Z,5.00
2022-09-26T10:07:59.160Z,2.77
2022-09-26T10:10:39.053Z,4.93
2022-09-26T10:13:10.207Z,2.73
2022-09-26T10:15:43.827Z,9.20
2022-09-26T10:18:25.198Z,4.00
2022-09-26T10:20:58.403Z,3.60
2022-09-26T10:23:35.004Z,2.03
2022-09-26T10:26:06.032Z,3.17
2022-09-26T10:28:37.801Z,4.40
2022-09-26T10:31:09.884Z,1.80
2022-09-26T10:33:44.786Z,3.27
2022-09-26T10:36:21.760Z,7.87
2022-09-26T10:39:17.430Z,3.37
2022-09-26T10:41:47.687Z,4.47
2022-09-26T10:44:25.231Z,2.03
2022-09-26T10:46:58.041Z,6.30
2022-09-26T10:49:32.620Z,3.40
2022-09-26T10:52:11.701Z,3.20
2022-09-26T10:54:57.254Z,2.30
2022-09-26T10:57:30.730Z,1.63
2022-09-26T11:00:01.673Z,3.63
2022-09-26T11:02:30.299Z,1.70
2022-09-26T11:05:20.426Z,4.47
2022-09-26T11:07:52.253Z,2.37
2022-09-26T11:10:32.412Z,4.33
2022-09-26T11:13:04.032Z,1.60
2022-09-26T11:15:33.023Z,1.87
2022-09-26T11:18:01.931Z,3.23
2022-09-26T11:20:46.939Z,3.83
2022-09-26T11:23:31.632Z,1.70
2022-09-26T11:29:13.540Z,3.40
2022-09-26T11:34:31.619Z,2.60
2022-09-26T11:37:43.472Z,3.50
2022-09-26T11:40:44.111Z,2.23
2022-09-26T11:43:33.035Z,2.63
2022-09-26T11:46:21.121Z,3.07
2022-09-26T11:49:26.852Z,2.93
2022-09-26T11:52:14.610Z,5.70
2022-09-26T11:55:10.766Z,1.70
2022-09-26T11:57:48.634Z,2.53
2022-09-26T12:00:27.383Z,2.37
2022-09-26T12:03:30.584Z,2.93
2022-09-26T12:06:18.877Z,3.27
2022-09-26T12:09:34.240Z,2.60
2022-09-26T12:12:12.450Z,2.17
2022-09-26T12:14:57.132Z,2.43
2022-09-26T12:17:41.154Z,1.80
2022-09-26T12:20:27.720Z,5.77
2022-09-26T12:23:07.503Z,3.00
2022-09-26T12:26:01.294Z,2.67
2022-09-26T12:29:06.632Z,3.73
2022-09-26T12:31:50.474Z,2.70
2022-09-26T12:34:48.367Z,3.10
2022-09-26T12:37:39.222Z,2.77
2022-09-26T12:40:23.355Z,1.90
2022-09-26T12:43:38.516Z,1.83
2022-09-26T12:46:53.413Z,1.77
2022-09-26T12:50:02.318Z,2.30
2022-09-26T12:52:53.334Z,3.40
2022-09-26T12:55:33.730Z,1.67
2022-09-26T12:58:20.503Z,1.60
2022-09-26T13:00:57.347Z,2.50
2022-09-26T13:03:56.749Z,1.83
2022-09-26T13:07:17.355Z,1.77
2022-09-26T13:10:15.273Z,2.57
2022-09-26T13:13:46.380Z,2.60
2022-09-26T13:16:26.463Z,2.93
2022-09-26T13:19:01.714Z,1.70
2022-09-26T13:21:45.493Z,2.37
2022-09-26T13:24:20.480Z,1.83
2022-09-26T13:26:54.157Z,2.30
2022-09-26T13:29:28.138Z,1.60
2022-09-26T13:32:07.896Z,4.13
2022-09-26T13:34:41.404Z,1.53
2022-09-26T13:37:28.651Z,1.83
2022-09-26T13:40:08.315Z,1.80
2022-09-26T13:42:45.852Z,1.40
2022-09-26T13:45:26.847Z,1.50
2022-09-26T13:48:04.961Z,2.33
2022-09-26T13:50:42.849Z,1.80
2022-09-26T13:53:23.792Z,1.70
2022-09-26T13:56:30.350Z,1.70
2022-09-26T13:59:07.172Z,1.90
2022-09-26T14:01:36.517Z,1.97
2022-09-26T14:04:21.487Z,1.80
2022-09-26T14:07:27.758Z,1.53
2022-09-26T14:10:13.401Z,1.57
2022-09-26T14:13:21.534Z,3.80
2022-09-26T14:16:05.017Z,2.10
2022-09-26T14:19:06.835Z,1.90
2022-09-26T14:21:44.878Z,2.40
2022-09-26T14:24:36.389Z,1.80
2022-09-26T14:27:32.171Z,1.70
2022-09-26T14:30:03.166Z,1.50
2022-09-26T14:32:39.246Z,2.17
2022-09-26T14:35:20.255Z,1.40
2022-09-26T14:37:52.149Z,1.43
2022-09-26T14:40:34.707Z,1.20
2022-09-26T14:43:15.391Z,1.93
2022-09-26T14:45:49.826Z,1.87
2022-09-26T14:48:33.414Z,1.40
2022-09-26T14:51:06.204Z,2.20
2022-09-26T14:53:42.012Z,4.50
2022-09-26T14:56:15.973Z,2.37
2022-09-26T14:58:51.760Z,2.27
2022-09-26T15:01:26.723Z,1.70
2022-09-26T15:04:03.021Z,5.20
2022-09-26T15:06:37.405Z,2.00
2022-09-26T15:09:12.392Z,2.23
2022-09-26T15:11:46.273Z,1.50
2022-09-26T15:14:33.927Z,1.80
2022-09-26T15:17:03.599Z,1.80
2022-09-26T15:19:37.427Z,1.50
2022-09-26T15:22:13.242Z,1.43
2022-09-26T15:24:41.703Z,2.10
2022-09-26T15:27:15.104Z,1.87
2022-09-26T15:29:49.944Z,1.60
2022-09-26T15:32:26.020Z,1.30
2022-09-26T15:34:55.371Z,1.40
2022-09-26T15:37:28.159Z,1.40
2022-09-26T15:39:56.804Z,1.40
2022-09-26T15:42:47.411Z,1.63
2022-09-26T15:45:56.540Z,3.33
2022-09-26T15:48:32.481Z,1.43
2022-09-26T15:51:06.655Z,1.77
2022-09-26T15:53:40.239Z,1.60
2022-09-26T15:56:13.430Z,1.50
2022-09-26T15:58:47.885Z,3.17
2022-09-26T16:01:20.572Z,1.43
2022-09-26T16:03:57.298Z,1.50
2022-09-26T16:06:30.404Z,1.77
2022-09-26T16:09:09.517Z,1.40
2022-09-26T16:11:47.684Z,1.23
2022-09-26T16:14:26.907Z,1.30
2022-09-26T16:17:10.898Z,1.30
2022-09-26T16:19:46.948Z,1.60
2022-09-26T16:22:38.876Z,2.87
2022-09-26T16:25:32.077Z,1.60
2022-09-26T16:28:25.789Z,1.90
2022-09-26T16:31:18.848Z,1.90
2022-09-26T16:33:53.380Z,3.17
2022-09-26T16:36:24.737Z,2.83
2022-09-26T16:38:59.424Z,2.13
2022-09-26T16:44:35.501Z,3.00
2022-09-26T16:47:09.081Z,3.07
2022-09-26T16:49:48.324Z,3.83
2022-09-26T16:52:29.994Z,2.00
2022-09-26T16:55:02.609Z,1.60
2022-09-26T16:57:33.995Z,2.10
2022-09-26T17:00:23.628Z,2.23
2022-09-26T17:02:52.214Z,4.30
2022-09-26T17:05:23.204Z,2.90
2022-09-26T17:07:51.808Z,6.03
2022-09-26T17:10:22.458Z,3.93
2022-09-26T17:12:53.006Z,2.60
2022-09-26T17:15:28.275Z,5.87
2022-09-26T17:17:57.781Z,14.23
2022-09-26T17:20:29.171Z,9.43
2022-09-26T17:22:57.643Z,22.83
2022-09-26T17:25:26.228Z,10.43
2022-09-26T17:27:59.630Z,8.13
2022-09-26T17:30:28.306Z,4.30
2022-09-26T17:32:58.918Z,2.90
2022-09-26T17:35:33.521Z,5.40
2022-09-26T17:38:02.711Z,3.50
2022-09-26T17:40:33.838Z,7.73
2022-09-26T17:43:02.612Z,4.97
2022-09-26T17:45:34.619Z,5.10
2022-09-26T17:48:06.305Z,7.40
2022-09-26T17:50:37.554Z,6.20
2022-09-26T17:53:10.028Z,3.87
2022-09-26T17:55:38.506Z,4.07
2022-09-26T17:58:10.274Z,7.03
2022-09-26T18:00:40.415Z,4.90
2022-09-26T18:03:18.262Z,5.20
2022-09-26T18:05:48.939Z,3.77
2022-09-26T18:08:23.349Z,3.83
2022-09-26T18:10:56.866Z,6.63
2022-09-26T18:13:31.488Z,6.90
2022-09-26T18:16:00.210Z,7.50
2022-09-26T18:18:31.073Z,6.17
2022-09-26T18:21:04.031Z,5.00
2022-09-26T18:23:44.128Z,5.50
2022-09-26T18:26:28.603Z,5.13
2022-09-26T18:28:58.394Z,6.97
2022-09-26T18:31:31.206Z,4.80
2022-09-26T18:34:00.069Z,4.50
2022-09-26T18:36:32.844Z,4.87
2022-09-26T18:39:01.545Z,7.33
2022-09-26T18:41:30.266Z,10.93
2022-09-26T18:44:02.992Z,9.70
2022-09-26T18:46:32.138Z,5.50
2022-09-26T18:49:06.350Z,4.83
2022-09-26T18:51:36.199Z,5.17
2022-09-26T18:54:10.748Z,4.93
2022-09-26T18:56:57.549Z,5.60
2022-09-26T18:59:29.025Z,4.03
2022-09-26T19:01:59.549Z,3.77
2022-09-26T19:04:28.467Z,3.40
2022-09-26T19:07:02.023Z,4.20
2022-09-26T19:09:34.540Z,4.63
2022-09-26T19:12:04.359Z,5.03
2022-09-26T19:14:33.456Z,6.07
2022-09-26T19:17:01.989Z,4.13
2022-09-26T19:19:32.405Z,7.27
2022-09-26T19:22:08.138Z,4.63
2022-09-26T19:24:39.917Z,5.10
2022-09-26T19:27:14.872Z,3.77
2022-09-26T19:29:47.331Z,6.83
2022-09-26T19:32:22.231Z,5.30
2022-09-26T19:34:56.140Z,6.60
2022-09-26T19:37:26.063Z,7.67
2022-09-26T19:39:55.783Z,8.00
2022-09-26T19:42:24.307Z,6.03
2022-09-26T19:44:52.759Z,4.80
2022-09-26T19:47:24.463Z,6.20
2022-09-26T19:49:53.995Z,8.37
2022-09-26T19:52:23.298Z,7.37
2022-09-26T19:54:53.312Z,7.17
2022-09-26T19:57:24.048Z,5.40
2022-09-26T19:59:52.866Z,8.00
2022-09-26T20:02:23.140Z,8.67
2022-09-26T20:04:53.132Z,7.27
2022-09-26T20:07:21.665Z,4.87
2022-09-26T20:09:50.290Z,5.17
2022-09-26T20:12:20.188Z,4.97
2022-09-26T20:14:48.678Z,4.67
2022-09-26T20:17:23.919Z,4.90
2022-09-26T20:19:58.402Z,4.83
2022-09-26T20:22:27.851Z,7.13
2022-09-26T20:24:57.126Z,5.27
2022-09-26T20:27:29.568Z,4.87
2022-09-26T20:30:15.838Z,5.70
2022-09-26T20:32:44.268Z,3.97
2022-09-26T20:35:15.957Z,4.40
2022-09-26T20:37:45.405Z,4.40
2022-09-26T20:40:19.438Z,4.80
2022-09-26T20:42:53.219Z,4.20
2022-09-26T20:45:29.682Z,4.30
2022-09-26T20:47:59.333Z,4.97
2022-09-26T20:50:34.250Z,5.17
2022-09-26T20:53:03.171Z,5.63
2022-09-26T20:55:32.445Z,5.23
2022-09-26T20:58:02.622Z,5.33
2022-09-26T21:00:32.329Z,6.63
2022-09-26T21:03:00.963Z,6.47
2022-09-26T21:05:29.518Z,5.93
2022-09-26T21:07:59.943Z,5.00
2022-09-26T21:10:31.034Z,5.83
2022-09-26T21:13:01.783Z,4.13
2022-09-26T21:15:32.815Z,5.23
2022-09-26T21:18:02.504Z,5.07
2022-09-26T21:20:32.744Z,4.70
2022-09-26T21:23:02.605Z,5.13
2022-09-26T21:25:33.379Z,4.70
2022-09-26T21:28:10.841Z,5.20
2022-09-26T21:30:39.259Z,4.60
2022-09-26T21:33:07.615Z,4.63
2022-09-26T21:35:35.969Z,4.33
2022-09-26T21:38:04.376Z,5.67
2022-09-26T21:40:36.311Z,5.57
2022-09-26T21:43:10.982Z,4.57
2022-09-26T21:45:39.830Z,4.53
2022-09-26T21:48:08.626Z,4.23
2022-09-26T21:50:39.841Z,4.03
2022-09-26T21:53:14.058Z,5.80
2022-09-26T21:55:46.671Z,5.53
2022-09-26T21:58:22.423Z,3.73
2022-09-26T22:00:50.891Z,6.83
2022-09-26T22:03:19.297Z,4.63
2022-09-26T22:05:47.718Z,6.33
2022-09-26T22:08:16.271Z,4.70
2022-09-26T22:10:44.719Z,5.10
2022-09-26T22:13:13.123Z,6.00
2022-09-26T22:15:42.904Z,4.43
2022-09-26T22:18:11.307Z,4.30
2022-09-26T22:20:39.728Z,3.90
2022-09-26T22:23:08.140Z,4.17
2022-09-26T22:25:39.690Z,5.27
2022-09-26T22:28:11.144Z,4.20
2022-09-26T22:30:42.029Z,6.77
2022-09-26T22:33:11.337Z,4.63
2022-09-26T22:35:39.719Z,4.20
2022-09-26T22:38:08.094Z,4.87
2022-09-26T22:40:36.549Z,4.23
2022-09-26T22:43:04.932Z,4.90
2022-09-26T22:45:34.537Z,4.03
2022-09-26T22:48:05.329Z,5.80
2022-09-26T22:50:33.724Z,4.87
2022-09-26T22:53:02.099Z,4.30
2022-09-26T22:55:30.523Z,5.77
2022-09-26T22:57:58.877Z,4.63
2022-09-26T23:00:27.403Z,4.40
2022-09-26T23:02:55.776Z,4.53
2022-09-26T23:05:25.744Z,4.30
2022-09-26T23:07:55.171Z,3.97
2022-09-26T23:10:23.558Z,4.83
2022-09-26T23:12:52.055Z,4.30
2022-09-26T23:15:20.490Z,5.90
2022-09-26T23:17:48.950Z,4.13
2022-09-26T23:20:17.974Z,4.50
2022-09-26T23:22:47.724Z,5.23
2022-09-26T23:25:17.139Z,4.17
2022-09-26T23:27:45.577Z,5.40
2022-09-26T23:30:14.671Z,4.63
2022-09-26T23:32:43.114Z,4.00
2022-09-26T23:35:11.800Z,3.93
2022-09-26T23:37:40.142Z,4.07
2022-09-26T23:40:11.439Z,3.93
2022-09-26T23:42:39.908Z,3.30
2022-09-26T23:45:09.705Z,3.60
2022-09-26T23:47:38.081Z,3.53
2022-09-26T23:50:08.029Z,3.40
2022-09-26T23:52:36.487Z,4.60
2022-09-26T23:55:06.330Z,3.90
2022-09-26T23:57:36.459Z,3.43
